KGEG

Spokane International Airport

Spokane, Washington, USA
METAR KGEG 211353Z 03005KT 10SM FEW090 SCT160 SCT200 04/01 A3008 RMK AO2 SLP190 T00390006
Observed Flight Rules
Oct-21 @ 13:53 UTC (44 minutes ago) Visual Flight Rules
Wind Visibility Clouds
30° at 5 knots 10 miles
  • Few at 9,000' AGL
  • Scattered at 16,000' AGL
  • Scattered at 20,000' AGL
Temperatures Readings
Current 4°C / 39°F
Dewpoint 1°C / 34°F
Humidity 81%
Altimeter 30.08" Hg
Pressure 1019 hPa
Elevation 735
METAR KGEG 211353Z 03005KT 10SM FEW090 SCT160 SCT200 04/01 A3008 RMK AO2 SLP190 T00390006
Observed Flight Rules
Oct-21 @ 13:53 UTC
(44 minutes ago)
VFR
Wind Visibility
30° at 5 knots 10 miles
Clouds
  • Few at 9,000' AGL
  • Scattered at 16,000' AGL
  • Scattered at 20,000' AGL
Temperature Dewpoint
4°C / 39°F 1°C / 34°F
Humidity Altimeter Pressure
81% 30.08" Hg 1019 hPa